sensor_id;sensor_type;location;lat;lon;timestamp;temperature;humidity
24338;DHT22;12457;50.832;4.346;2023-04-20T00:01:45;9.00;99.90
24338;DHT22;12457;50.832;4.346;2023-04-20T00:04:11;8.90;99.90
24338;DHT22;12457;50.832;4.346;2023-04-20T00:06:43;8.90;99.90
24338;DHT22;12457;50.832;4.346;2023-04-20T00:09:12;8.90;99.90
24338;DHT22;12457;50.832;4.346;2023-04-20T00:11:38;8.90;99.90
24338;DHT22;12457;50.832;4.346;2023-04-20T00:14:05;8.80;99.90
24338;DHT22;12457;50.832;4.346;2023-04-20T00:16:31;8.80;1.00
24338;DHT22;12457;50.832;4.346;2023-04-20T00:18:58;8.80;1.00
24338;DHT22;12457;50.832;4.346;2023-04-20T00:21:24;8.80;1.00
24338;DHT22;12457;50.832;4.346;2023-04-20T00:23:50;8.80;1.00
24338;DHT22;12457;50.832;4.346;2023-04-20T00:26:16;8.70;1.00
24338;DHT22;12457;50.832;4.346;2023-04-20T00:28:42;8.80;1.00
24338;DHT22;12457;50.832;4.346;2023-04-20T00:31:08;8.80;1.00
24338;DHT22;12457;50.832;4.346;2023-04-20T00:33:34;8.80;1.00
24338;DHT22;12457;50.832;4.346;2023-04-20T00:36:00;8.70;1.00
24338;DHT22;12457;50.832;4.346;2023-04-20T00:38:26;8.70;1.00
24338;DHT22;12457;50.832;4.346;2023-04-20T00:40:54;8.60;30.80
24338;DHT22;12457;50.832;4.346;2023-04-20T00:43:20;8.60;99.90
24338;DHT22;12457;50.832;4.346;2023-04-20T00:45:46;8.50;99.90
24338;DHT22;12457;50.832;4.346;2023-04-20T00:48:13;8.50;99.90
24338;DHT22;12457;50.832;4.346;2023-04-20T00:50:39;8.60;99.90
24338;DHT22;12457;50.832;4.346;2023-04-20T00:53:06;8.50;99.90
24338;DHT22;12457;50.832;4.346;2023-04-20T00:55:32;8.50;99.90
24338;DHT22;12457;50.832;4.346;2023-04-20T00:57:58;8.40;99.90
24338;DHT22;12457;50.832;4.346;2023-04-20T01:00:24;8.40;99.90
24338;DHT22;12457;50.832;4.346;2023-04-20T01:02:51;8.30;99.90
24338;DHT22;12457;50.832;4.346;2023-04-20T01:05:17;8.30;99.90
24338;DHT22;12457;50.832;4.346;2023-04-20T01:07:45;8.20;99.90
24338;DHT22;12457;50.832;4.346;2023-04-20T01:10:11;8.20;1.00
24338;DHT22;12457;50.832;4.346;2023-04-20T01:12:36;8.20;1.00
24338;DHT22;12457;50.832;4.346;2023-04-20T01:15:03;8.20;1.00
24338;DHT22;12457;50.832;4.346;2023-04-20T01:17:31;8.20;1.00
24338;DHT22;12457;50.832;4.346;2023-04-20T01:19:58;8.10;1.00
24338;DHT22;12457;50.832;4.346;2023-04-20T01:22:25;8.10;99.90
24338;DHT22;12457;50.832;4.346;2023-04-20T01:24:51;8.00;99.90
24338;DHT22;12457;50.832;4.346;2023-04-20T01:27:17;7.90;99.90
24338;DHT22;12457;50.832;4.346;2023-04-20T01:29:43;8.00;99.90
24338;DHT22;12457;50.832;4.346;2023-04-20T01:32:09;7.90;99.90
24338;DHT22;12457;50.832;4.346;2023-04-20T01:34:36;7.80;99.90
24338;DHT22;12457;50.832;4.346;2023-04-20T01:37:02;7.80;99.90
24338;DHT22;12457;50.832;4.346;2023-04-20T01:39:36;7.80;1.00
24338;DHT22;12457;50.832;4.346;2023-04-20T01:42:02;7.80;1.00
24338;DHT22;12457;50.832;4.346;2023-04-20T01:44:28;7.80;1.00
24338;DHT22;12457;50.832;4.346;2023-04-20T01:46:54;7.70;1.00
24338;DHT22;12457;50.832;4.346;2023-04-20T01:49:19;7.70;1.00
24338;DHT22;12457;50.832;4.346;2023-04-20T01:51:45;7.70;99.90
24338;DHT22;12457;50.832;4.346;2023-04-20T01:54:11;7.70;99.90
24338;DHT22;12457;50.832;4.346;2023-04-20T01:56:36;7.50;99.90
24338;DHT22;12457;50.832;4.346;2023-04-20T01:59:02;7.60;1.00
24338;DHT22;12457;50.832;4.346;2023-04-20T02:01:28;7.50;1.00
24338;DHT22;12457;50.832;4.346;2023-04-20T02:03:53;7.50;1.00
24338;DHT22;12457;50.832;4.346;2023-04-20T02:06:19;7.50;1.00
24338;DHT22;12457;50.832;4.346;2023-04-20T02:08:45;7.50;1.00
24338;DHT22;12457;50.832;4.346;2023-04-20T02:11:10;7.50;1.00
24338;DHT22;12457;50.832;4.346;2023-04-20T02:13:37;7.40;1.00
24338;DHT22;12457;50.832;4.346;2023-04-20T02:16:03;7.40;1.00
24338;DHT22;12457;50.832;4.346;2023-04-20T02:18:29;7.30;99.90
24338;DHT22;12457;50.832;4.346;2023-04-20T02:20:57;7.20;52.60
24338;DHT22;12457;50.832;4.346;2023-04-20T02:23:23;7.20;99.90
24338;DHT22;12457;50.832;4.346;2023-04-20T02:25:49;7.20;1.00
24338;DHT22;12457;50.832;4.346;2023-04-20T02:28:15;7.20;27.80
24338;DHT22;12457;50.832;4.346;2023-04-20T02:30:41;7.10;99.90
24338;DHT22;12457;50.832;4.346;2023-04-20T02:33:07;7.10;99.90
24338;DHT22;12457;50.832;4.346;2023-04-20T02:35:33;7.10;1.00
24338;DHT22;12457;50.832;4.346;2023-04-20T02:37:58;7.10;1.00
24338;DHT22;12457;50.832;4.346;2023-04-20T02:40:24;7.10;80.10
24338;DHT22;12457;50.832;4.346;2023-04-20T02:42:50;7.10;1.00
24338;DHT22;12457;50.832;4.346;2023-04-20T02:45:16;7.00;45.30
24338;DHT22;12457;50.832;4.346;2023-04-20T02:47:41;7.00;99.90
24338;DHT22;12457;50.832;4.346;2023-04-20T02:50:07;7.00;99.90
24338;DHT22;12457;50.832;4.346;2023-04-20T02:52:34;6.90;11.40
24338;DHT22;12457;50.832;4.346;2023-04-20T02:55:03;7.00;1.00
24338;DHT22;12457;50.832;4.346;2023-04-20T02:57:28;7.00;1.00
24338;DHT22;12457;50.832;4.346;2023-04-20T02:59:54;6.90;1.00
24338;DHT22;12457;50.832;4.346;2023-04-20T03:02:21;6.80;99.90
24338;DHT22;12457;50.832;4.346;2023-04-20T03:04:46;6.80;1.00
24338;DHT22;12457;50.832;4.346;2023-04-20T03:07:14;6.80;1.00
24338;DHT22;12457;50.832;4.346;2023-04-20T03:09:40;6.70;99.90
24338;DHT22;12457;50.832;4.346;2023-04-20T03:12:06;6.70;18.60
24338;DHT22;12457;50.832;4.346;2023-04-20T03:14:31;6.70;99.90
24338;DHT22;12457;50.832;4.346;2023-04-20T03:16:57;6.70;99.90
24338;DHT22;12457;50.832;4.346;2023-04-20T03:19:23;6.70;1.00
24338;DHT22;12457;50.832;4.346;2023-04-20T03:21:49;6.80;99.90
24338;DHT22;12457;50.832;4.346;2023-04-20T03:24:15;6.70;1.00
24338;DHT22;12457;50.832;4.346;2023-04-20T03:26:41;6.70;29.90
24338;DHT22;12457;50.832;4.346;2023-04-20T03:29:07;6.70;1.00
24338;DHT22;12457;50.832;4.346;2023-04-20T03:31:32;6.70;99.90
24338;DHT22;12457;50.832;4.346;2023-04-20T03:33:58;6.60;1.00
24338;DHT22;12457;50.832;4.346;2023-04-20T03:36:24;6.60;56.30
24338;DHT22;12457;50.832;4.346;2023-04-20T03:38:56;6.70;1.00
24338;DHT22;12457;50.832;4.346;2023-04-20T03:41:21;6.60;1.00
24338;DHT22;12457;50.832;4.346;2023-04-20T03:43:47;6.70;99.90
24338;DHT22;12457;50.832;4.346;2023-04-20T03:46:13;6.70;1.00
24338;DHT22;12457;50.832;4.346;2023-04-20T03:48:39;6.60;99.90
24338;DHT22;12457;50.832;4.346;2023-04-20T03:51:05;6.70;76.00
24338;DHT22;12457;50.832;4.346;2023-04-20T03:53:43;6.60;92.70
24338;DHT22;12457;50.832;4.346;2023-04-20T03:56:08;6.60;38.30
24338;DHT22;12457;50.832;4.346;2023-04-20T03:58:34;6.60;86.10
24338;DHT22;12457;50.832;4.346;2023-04-20T04:01:04;6.60;99.90
24338;DHT22;12457;50.832;4.346;2023-04-20T04:03:32;6.50;99.90
24338;DHT22;12457;50.832;4.346;2023-04-20T04:06:01;6.60;99.90
24338;DHT22;12457;50.832;4.346;2023-04-20T04:08:27;6.60;1.00
24338;DHT22;12457;50.832;4.346;2023-04-20T04:10:53;6.60;99.90
24338;DHT22;12457;50.832;4.346;2023-04-20T04:13:18;6.60;99.90
24338;DHT22;12457;50.832;4.346;2023-04-20T04:15:44;6.70;1.00
24338;DHT22;12457;50.832;4.346;2023-04-20T04:18:10;6.70;1.00
24338;DHT22;12457;50.832;4.346;2023-04-20T04:20:36;6.60;99.90
24338;DHT22;12457;50.832;4.346;2023-04-20T04:23:05;6.60;24.20
24338;DHT22;12457;50.832;4.346;2023-04-20T04:25:37;6.60;1.00
24338;DHT22;12457;50.832;4.346;2023-04-20T04:28:05;6.60;1.00
24338;DHT22;12457;50.832;4.346;2023-04-20T04:30:32;6.50;99.90
24338;DHT22;12457;50.832;4.346;2023-04-20T04:32:58;6.50;1.00
24338;DHT22;12457;50.832;4.346;2023-04-20T04:35:25;6.50;99.90
24338;DHT22;12457;50.832;4.346;2023-04-20T04:37:51;6.60;99.90
24338;DHT22;12457;50.832;4.346;2023-04-20T04:40:19;6.70;30.00
24338;DHT22;12457;50.832;4.346;2023-04-20T04:42:45;6.80;1.00
24338;DHT22;12457;50.832;4.346;2023-04-20T04:45:13;6.80;99.90
24338;DHT22;12457;50.832;4.346;2023-04-20T04:47:39;6.80;1.00
24338;DHT22;12457;50.832;4.346;2023-04-20T04:50:07;6.80;99.90
24338;DHT22;12457;50.832;4.346;2023-04-20T04:52:33;6.70;1.00
24338;DHT22;12457;50.832;4.346;2023-04-20T04:54:59;6.70;99.90
24338;DHT22;12457;50.832;4.346;2023-04-20T04:57:25;6.60;99.90
24338;DHT22;12457;50.832;4.346;2023-04-20T04:59:51;6.60;1.00
24338;DHT22;12457;50.832;4.346;2023-04-20T05:02:17;6.70;1.00
24338;DHT22;12457;50.832;4.346;2023-04-20T05:04:43;6.70;18.60
24338;DHT22;12457;50.832;4.346;2023-04-20T05:07:08;6.70;92.30
24338;DHT22;12457;50.832;4.346;2023-04-20T05:09:38;6.70;99.90
24338;DHT22;12457;50.832;4.346;2023-04-20T05:12:05;6.80;99.90
24338;DHT22;12457;50.832;4.346;2023-04-20T05:14:31;6.80;99.90
24338;DHT22;12457;50.832;4.346;2023-04-20T05:16:58;6.80;99.90
24338;DHT22;12457;50.832;4.346;2023-04-20T05:19:24;6.80;99.90
24338;DHT22;12457;50.832;4.346;2023-04-20T05:21:50;6.90;99.90
24338;DHT22;12457;50.832;4.346;2023-04-20T05:24:16;6.90;99.90
24338;DHT22;12457;50.832;4.346;2023-04-20T05:26:42;6.90;99.90
24338;DHT22;12457;50.832;4.346;2023-04-20T05:29:09;6.90;99.90
24338;DHT22;12457;50.832;4.346;2023-04-20T05:31:34;7.00;99.90
24338;DHT22;12457;50.832;4.346;2023-04-20T05:34:01;7.10;99.90
24338;DHT22;12457;50.832;4.346;2023-04-20T05:36:28;7.10;99.90
24338;DHT22;12457;50.832;4.346;2023-04-20T05:38:54;7.10;99.90
24338;DHT22;12457;50.832;4.346;2023-04-20T05:41:20;7.10;99.90
24338;DHT22;12457;50.832;4.346;2023-04-20T05:43:53;7.20;99.90
24338;DHT22;12457;50.832;4.346;2023-04-20T05:46:20;7.20;99.90
24338;DHT22;12457;50.832;4.346;2023-04-20T05:48:46;7.30;99.90
24338;DHT22;12457;50.832;4.346;2023-04-20T05:51:12;7.30;1.00
24338;DHT22;12457;50.832;4.346;2023-04-20T05:53:37;7.30;1.00
24338;DHT22;12457;50.832;4.346;2023-04-20T05:56:04;7.30;1.00
24338;DHT22;12457;50.832;4.346;2023-04-20T05:58:32;7.30;1.00
24338;DHT22;12457;50.832;4.346;2023-04-20T06:00:59;7.40;1.00
24338;DHT22;12457;50.832;4.346;2023-04-20T06:03:26;7.40;1.00
24338;DHT22;12457;50.832;4.346;2023-04-20T06:05:52;7.50;1.00
24338;DHT22;12457;50.832;4.346;2023-04-20T06:08:18;7.50;1.00
24338;DHT22;12457;50.832;4.346;2023-04-20T06:10:44;7.50;1.00
24338;DHT22;12457;50.832;4.346;2023-04-20T06:13:10;7.60;1.00
24338;DHT22;12457;50.832;4.346;2023-04-20T06:15:36;7.70;1.00
24338;DHT22;12457;50.832;4.346;2023-04-20T06:18:01;7.80;1.00
24338;DHT22;12457;50.832;4.346;2023-04-20T06:20:27;7.80;1.00
24338;DHT22;12457;50.832;4.346;2023-04-20T06:22:53;7.80;1.00
24338;DHT22;12457;50.832;4.346;2023-04-20T06:25:19;7.90;1.00
24338;DHT22;12457;50.832;4.346;2023-04-20T06:27:45;8.00;1.00
24338;DHT22;12457;50.832;4.346;2023-04-20T06:30:12;7.90;1.00
24338;DHT22;12457;50.832;4.346;2023-04-20T06:32:38;8.00;1.00
24338;DHT22;12457;50.832;4.346;2023-04-20T06:35:07;8.00;1.00
24338;DHT22;12457;50.832;4.346;2023-04-20T06:37:36;8.10;1.00
24338;DHT22;12457;50.832;4.346;2023-04-20T06:40:03;8.10;1.00
24338;DHT22;12457;50.832;4.346;2023-04-20T06:42:36;8.20;1.00
24338;DHT22;12457;50.832;4.346;2023-04-20T06:45:03;8.10;1.00
24338;DHT22;12457;50.832;4.346;2023-04-20T06:47:28;7.90;1.00
24338;DHT22;12457;50.832;4.346;2023-04-20T06:50:02;7.80;1.00
24338;DHT22;12457;50.832;4.346;2023-04-20T06:52:29;7.70;1.00
24338;DHT22;12457;50.832;4.346;2023-04-20T06:54:57;7.50;1.00
24338;DHT22;12457;50.832;4.346;2023-04-20T06:57:24;7.60;1.00
24338;DHT22;12457;50.832;4.346;2023-04-20T06:59:50;7.70;1.00
24338;DHT22;12457;50.832;4.346;2023-04-20T07:02:16;7.80;1.00
24338;DHT22;12457;50.832;4.346;2023-04-20T07:04:43;7.90;1.00
24338;DHT22;12457;50.832;4.346;2023-04-20T07:07:08;8.00;1.00
24338;DHT22;12457;50.832;4.346;2023-04-20T07:09:34;8.10;1.00
24338;DHT22;12457;50.832;4.346;2023-04-20T07:12:00;8.20;1.00
24338;DHT22;12457;50.832;4.346;2023-04-20T07:14:27;8.20;1.00
24338;DHT22;12457;50.832;4.346;2023-04-20T07:16:53;8.00;1.00
24338;DHT22;12457;50.832;4.346;2023-04-20T07:19:19;7.90;1.00
24338;DHT22;12457;50.832;4.346;2023-04-20T07:21:45;8.00;1.00
24338;DHT22;12457;50.832;4.346;2023-04-20T07:24:11;8.20;1.00
24338;DHT22;12457;50.832;4.346;2023-04-20T07:26:37;8.20;1.00
24338;DHT22;12457;50.832;4.346;2023-04-20T07:29:03;8.10;1.00
24338;DHT22;12457;50.832;4.346;2023-04-20T07:31:28;8.00;1.00
24338;DHT22;12457;50.832;4.346;2023-04-20T07:33:54;8.00;1.00
24338;DHT22;12457;50.832;4.346;2023-04-20T07:36:20;7.90;1.00
24338;DHT22;12457;50.832;4.346;2023-04-20T07:38:47;7.70;1.00
24338;DHT22;12457;50.832;4.346;2023-04-20T07:41:14;7.70;1.00
24338;DHT22;12457;50.832;4.346;2023-04-20T07:43:40;7.70;1.00
24338;DHT22;12457;50.832;4.346;2023-04-20T07:46:06;7.70;1.00
24338;DHT22;12457;50.832;4.346;2023-04-20T07:48:35;7.70;1.00
24338;DHT22;12457;50.832;4.346;2023-04-20T07:51:01;7.80;1.00
24338;DHT22;12457;50.832;4.346;2023-04-20T07:53:32;7.80;1.00
24338;DHT22;12457;50.832;4.346;2023-04-20T07:55:59;7.90;1.00
24338;DHT22;12457;50.832;4.346;2023-04-20T07:58:25;8.00;1.00
24338;DHT22;12457;50.832;4.346;2023-04-20T08:00:51;8.00;1.00
24338;DHT22;12457;50.832;4.346;2023-04-20T08:03:16;8.00;1.00
24338;DHT22;12457;50.832;4.346;2023-04-20T08:05:42;8.20;1.00
24338;DHT22;12457;50.832;4.346;2023-04-20T08:08:08;8.30;1.00
24338;DHT22;12457;50.832;4.346;2023-04-20T08:10:34;8.20;1.00
24338;DHT22;12457;50.832;4.346;2023-04-20T08:12:59;8.20;1.00
24338;DHT22;12457;50.832;4.346;2023-04-20T08:15:25;8.40;1.00
24338;DHT22;12457;50.832;4.346;2023-04-20T08:17:51;8.40;1.00
24338;DHT22;12457;50.832;4.346;2023-04-20T08:20:17;8.30;1.00
24338;DHT22;12457;50.832;4.346;2023-04-20T08:22:44;8.30;1.00
24338;DHT22;12457;50.832;4.346;2023-04-20T08:25:09;8.30;1.00
24338;DHT22;12457;50.832;4.346;2023-04-20T08:27:36;8.40;1.00
24338;DHT22;12457;50.832;4.346;2023-04-20T08:30:02;8.50;1.00
24338;DHT22;12457;50.832;4.346;2023-04-20T08:32:28;8.60;1.00
24338;DHT22;12457;50.832;4.346;2023-04-20T08:34:54;8.80;1.00
24338;DHT22;12457;50.832;4.346;2023-04-20T08:37:20;8.70;1.00
24338;DHT22;12457;50.832;4.346;2023-04-20T08:39:46;8.70;1.00
24338;DHT22;12457;50.832;4.346;2023-04-20T08:42:12;8.80;1.00
24338;DHT22;12457;50.832;4.346;2023-04-20T08:44:38;8.80;1.00
24338;DHT22;12457;50.832;4.346;2023-04-20T08:47:05;9.10;1.00
24338;DHT22;12457;50.832;4.346;2023-04-20T08:49:30;9.20;1.00
24338;DHT22;12457;50.832;4.346;2023-04-20T08:51:57;9.50;1.00
24338;DHT22;12457;50.832;4.346;2023-04-20T08:54:23;9.40;1.00
24338;DHT22;12457;50.832;4.346;2023-04-20T08:56:48;9.40;1.00
24338;DHT22;12457;50.832;4.346;2023-04-20T08:59:15;9.30;1.00
24338;DHT22;12457;50.832;4.346;2023-04-20T09:01:41;9.30;1.00
24338;DHT22;12457;50.832;4.346;2023-04-20T09:04:33;9.20;1.00
24338;DHT22;12457;50.832;4.346;2023-04-20T09:06:59;9.30;1.00
24338;DHT22;12457;50.832;4.346;2023-04-20T09:09:27;9.30;1.00
24338;DHT22;12457;50.832;4.346;2023-04-20T09:12:03;9.10;1.00
24338;DHT22;12457;50.832;4.346;2023-04-20T09:14:30;9.00;1.00
24338;DHT22;12457;50.832;4.346;2023-04-20T09:16:57;9.00;1.00
24338;DHT22;12457;50.832;4.346;2023-04-20T09:19:28;9.10;1.00
24338;DHT22;12457;50.832;4.346;2023-04-20T09:21:56;9.00;1.00
24338;DHT22;12457;50.832;4.346;2023-04-20T09:24:29;9.20;1.00
24338;DHT22;12457;50.832;4.346;2023-04-20T09:26:55;9.50;1.00
24338;DHT22;12457;50.832;4.346;2023-04-20T09:29:23;9.80;1.00
24338;DHT22;12457;50.832;4.346;2023-04-20T09:31:50;10.10;1.00
24338;DHT22;12457;50.832;4.346;2023-04-20T09:34:17;10.10;1.00
24338;DHT22;12457;50.832;4.346;2023-04-20T09:36:45;10.50;1.00
24338;DHT22;12457;50.832;4.346;2023-04-20T09:39:13;11.00;1.00
24338;DHT22;12457;50.832;4.346;2023-04-20T09:41:41;11.10;1.00
24338;DHT22;12457;50.832;4.346;2023-04-20T09:44:07;10.90;1.00
24338;DHT22;12457;50.832;4.346;2023-04-20T09:46:35;11.00;1.00
24338;DHT22;12457;50.832;4.346;2023-04-20T09:49:06;10.80;1.00
24338;DHT22;12457;50.832;4.346;2023-04-20T09:51:33;10.50;1.00
24338;DHT22;12457;50.832;4.346;2023-04-20T09:54:01;10.50;1.00
24338;DHT22;12457;50.832;4.346;2023-04-20T09:56:28;10.50;1.00
24338;DHT22;12457;50.832;4.346;2023-04-20T09:58:54;10.30;1.00
24338;DHT22;12457;50.832;4.346;2023-04-20T10:01:21;10.20;1.00
24338;DHT22;12457;50.832;4.346;2023-04-20T10:03:48;10.20;1.00
24338;DHT22;12457;50.832;4.346;2023-04-20T10:06:25;10.10;1.00
24338;DHT22;12457;50.832;4.346;2023-04-20T10:08:52;10.20;1.00
24338;DHT22;12457;50.832;4.346;2023-04-20T10:11:38;10.30;1.00
24338;DHT22;12457;50.832;4.346;2023-04-20T10:14:21;10.30;1.00
24338;DHT22;12457;50.832;4.346;2023-04-20T10:17:05;10.30;1.00
24338;DHT22;12457;50.832;4.346;2023-04-20T10:19:42;10.30;1.00
24338;DHT22;12457;50.832;4.346;2023-04-20T10:22:10;10.50;1.00
24338;DHT22;12457;50.832;4.346;2023-04-20T10:24:36;10.50;1.00
24338;DHT22;12457;50.832;4.346;2023-04-20T10:27:29;10.70;1.00
24338;DHT22;12457;50.832;4.346;2023-04-20T10:30:06;10.70;99.90
24338;DHT22;12457;50.832;4.346;2023-04-20T10:32:33;10.70;99.90
24338;DHT22;12457;50.832;4.346;2023-04-20T10:35:04;10.50;99.90
24338;DHT22;12457;50.832;4.346;2023-04-20T10:37:31;10.60;1.00
24338;DHT22;12457;50.832;4.346;2023-04-20T10:39:56;10.40;1.00
24338;DHT22;12457;50.832;4.346;2023-04-20T10:42:22;10.30;1.00
24338;DHT22;12457;50.832;4.346;2023-04-20T10:44:54;10.30;1.00
24338;DHT22;12457;50.832;4.346;2023-04-20T10:47:30;10.10;1.00
24338;DHT22;12457;50.832;4.346;2023-04-20T10:50:09;10.00;1.00
24338;DHT22;12457;50.832;4.346;2023-04-20T10:52:36;9.90;1.00
24338;DHT22;12457;50.832;4.346;2023-04-20T10:55:02;10.10;1.00
24338;DHT22;12457;50.832;4.346;2023-04-20T10:57:28;10.10;1.00
24338;DHT22;12457;50.832;4.346;2023-04-20T10:59:54;10.10;1.00
24338;DHT22;12457;50.832;4.346;2023-04-20T11:02:20;10.10;1.00
24338;DHT22;12457;50.832;4.346;2023-04-20T11:04:46;9.90;1.00
24338;DHT22;12457;50.832;4.346;2023-04-20T11:07:11;9.90;1.00
24338;DHT22;12457;50.832;4.346;2023-04-20T11:09:40;9.80;1.00
24338;DHT22;12457;50.832;4.346;2023-04-20T11:12:11;9.80;1.00
24338;DHT22;12457;50.832;4.346;2023-04-20T11:14:54;9.80;1.00
24338;DHT22;12457;50.832;4.346;2023-04-20T11:17:33;9.80;1.00
24338;DHT22;12457;50.832;4.346;2023-04-20T11:20:10;9.80;1.00
24338;DHT22;12457;50.832;4.346;2023-04-20T11:22:40;9.90;1.00
24338;DHT22;12457;50.832;4.346;2023-04-20T11:25:08;9.90;1.00
24338;DHT22;12457;50.832;4.346;2023-04-20T11:27:47;9.90;1.00
24338;DHT22;12457;50.832;4.346;2023-04-20T11:30:14;10.00;1.00
24338;DHT22;12457;50.832;4.346;2023-04-20T11:32:40;10.20;1.00
24338;DHT22;12457;50.832;4.346;2023-04-20T11:35:08;10.40;1.00
24338;DHT22;12457;50.832;4.346;2023-04-20T11:37:45;10.50;1.00
24338;DHT22;12457;50.832;4.346;2023-04-20T11:40:12;10.70;1.00
24338;DHT22;12457;50.832;4.346;2023-04-20T11:42:42;10.60;1.00
24338;DHT22;12457;50.832;4.346;2023-04-20T11:45:08;10.60;1.00
24338;DHT22;12457;50.832;4.346;2023-04-20T11:47:36;10.60;1.00
24338;DHT22;12457;50.832;4.346;2023-04-20T11:50:03;10.30;1.00
24338;DHT22;12457;50.832;4.346;2023-04-20T11:52:29;10.30;1.00
24338;DHT22;12457;50.832;4.346;2023-04-20T11:54:55;10.50;1.00
24338;DHT22;12457;50.832;4.346;2023-04-20T11:57:22;10.60;1.00
24338;DHT22;12457;50.832;4.346;2023-04-20T11:59:50;10.90;99.90
24338;DHT22;12457;50.832;4.346;2023-04-20T12:02:15;11.10;99.90
24338;DHT22;12457;50.832;4.346;2023-04-20T12:04:41;11.40;99.90
24338;DHT22;12457;50.832;4.346;2023-04-20T12:07:07;11.90;99.90
24338;DHT22;12457;50.832;4.346;2023-04-20T12:09:33;11.90;90.90
24338;DHT22;12457;50.832;4.346;2023-04-20T12:12:06;12.10;1.00
24338;DHT22;12457;50.832;4.346;2023-04-20T12:14:48;12.20;99.90
24338;DHT22;12457;50.832;4.346;2023-04-20T12:17:13;12.20;53.70
24338;DHT22;12457;50.832;4.346;2023-04-20T12:19:39;12.20;99.90
24338;DHT22;12457;50.832;4.346;2023-04-20T12:22:05;12.00;99.90
24338;DHT22;12457;50.832;4.346;2023-04-20T12:24:30;11.90;1.00
24338;DHT22;12457;50.832;4.346;2023-04-20T12:26:56;11.50;99.90
24338;DHT22;12457;50.832;4.346;2023-04-20T12:29:22;11.30;1.00
24338;DHT22;12457;50.832;4.346;2023-04-20T12:31:48;11.30;89.20
24338;DHT22;12457;50.832;4.346;2023-04-20T12:34:13;11.20;99.90
24338;DHT22;12457;50.832;4.346;2023-04-20T12:36:39;11.20;99.90
24338;DHT22;12457;50.832;4.346;2023-04-20T12:39:05;11.40;99.90
24338;DHT22;12457;50.832;4.346;2023-04-20T12:41:31;11.60;99.90
24338;DHT22;12457;50.832;4.346;2023-04-20T12:43:57;11.80;93.60
24338;DHT22;12457;50.832;4.346;2023-04-20T12:46:23;11.50;92.90
24338;DHT22;12457;50.832;4.346;2023-04-20T12:48:49;11.30;1.00
24338;DHT22;12457;50.832;4.346;2023-04-20T12:51:15;11.00;96.50
24338;DHT22;12457;50.832;4.346;2023-04-20T12:53:41;10.80;99.90
24338;DHT22;12457;50.832;4.346;2023-04-20T12:56:07;10.70;99.90
24338;DHT22;12457;50.832;4.346;2023-04-20T12:58:32;10.80;99.90
24338;DHT22;12457;50.832;4.346;2023-04-20T13:00:58;11.00;99.90
24338;DHT22;12457;50.832;4.346;2023-04-20T13:03:24;11.20;99.90
24338;DHT22;12457;50.832;4.346;2023-04-20T13:05:49;11.50;37.30
24338;DHT22;12457;50.832;4.346;2023-04-20T13:08:15;11.50;1.00
24338;DHT22;12457;50.832;4.346;2023-04-20T13:10:41;11.60;1.00
24338;DHT22;12457;50.832;4.346;2023-04-20T13:13:09;11.60;1.00
24338;DHT22;12457;50.832;4.346;2023-04-20T13:15:35;11.70;99.90
24338;DHT22;12457;50.832;4.346;2023-04-20T13:18:01;11.70;99.90
24338;DHT22;12457;50.832;4.346;2023-04-20T13:20:27;11.50;99.90
24338;DHT22;12457;50.832;4.346;2023-04-20T13:23:01;11.40;55.10
24338;DHT22;12457;50.832;4.346;2023-04-20T13:25:28;11.30;99.90
24338;DHT22;12457;50.832;4.346;2023-04-20T13:27:57;11.00;1.00
24338;DHT22;12457;50.832;4.346;2023-04-20T13:30:23;10.40;1.00
24338;DHT22;12457;50.832;4.346;2023-04-20T13:32:49;9.90;26.10
24338;DHT22;12457;50.832;4.346;2023-04-20T13:35:15;9.00;70.60
24338;DHT22;12457;50.832;4.346;2023-04-20T13:37:41;8.40;93.30
24338;DHT22;12457;50.832;4.346;2023-04-20T13:40:08;8.20;99.60
24338;DHT22;12457;50.832;4.346;2023-04-20T13:42:34;8.10;99.90
24338;DHT22;12457;50.832;4.346;2023-04-20T13:45:00;7.90;99.90
24338;DHT22;12457;50.832;4.346;2023-04-20T13:47:26;7.90;99.90
24338;DHT22;12457;50.832;4.346;2023-04-20T13:49:51;7.80;99.90
24338;DHT22;12457;50.832;4.346;2023-04-20T13:52:17;7.60;99.90
24338;DHT22;12457;50.832;4.346;2023-04-20T13:54:43;7.50;99.90
24338;DHT22;12457;50.832;4.346;2023-04-20T13:57:08;7.60;99.90
24338;DHT22;12457;50.832;4.346;2023-04-20T13:59:34;7.40;99.90
24338;DHT22;12457;50.832;4.346;2023-04-20T14:02:00;7.60;99.90
24338;DHT22;12457;50.832;4.346;2023-04-20T14:04:26;7.80;99.90
24338;DHT22;12457;50.832;4.346;2023-04-20T14:06:52;8.10;99.90
24338;DHT22;12457;50.832;4.346;2023-04-20T14:09:17;8.30;99.90
24338;DHT22;12457;50.832;4.346;2023-04-20T14:11:44;8.30;99.90
24338;DHT22;12457;50.832;4.346;2023-04-20T14:14:10;8.40;99.90
24338;DHT22;12457;50.832;4.346;2023-04-20T14:16:46;8.60;99.90
24338;DHT22;12457;50.832;4.346;2023-04-20T14:19:12;8.50;99.90
24338;DHT22;12457;50.832;4.346;2023-04-20T14:21:39;8.60;99.90
24338;DHT22;12457;50.832;4.346;2023-04-20T14:24:08;8.70;99.90
24338;DHT22;12457;50.832;4.346;2023-04-20T14:26:34;8.80;99.90
24338;DHT22;12457;50.832;4.346;2023-04-20T14:29:00;8.50;99.90
24338;DHT22;12457;50.832;4.346;2023-04-20T14:31:25;8.60;99.90
24338;DHT22;12457;50.832;4.346;2023-04-20T14:33:53;8.90;99.90
24338;DHT22;12457;50.832;4.346;2023-04-20T14:36:19;9.00;95.70
24338;DHT22;12457;50.832;4.346;2023-04-20T14:38:45;9.20;97.00
24338;DHT22;12457;50.832;4.346;2023-04-20T14:41:10;9.30;90.40
24338;DHT22;12457;50.832;4.346;2023-04-20T14:43:36;9.30;81.40
24338;DHT22;12457;50.832;4.346;2023-04-20T14:46:04;9.50;83.60
24338;DHT22;12457;50.832;4.346;2023-04-20T14:48:30;9.60;76.60
24338;DHT22;12457;50.832;4.346;2023-04-20T14:50:55;9.70;72.90
24338;DHT22;12457;50.832;4.346;2023-04-20T14:53:21;9.80;77.50
24338;DHT22;12457;50.832;4.346;2023-04-20T14:55:47;10.00;56.60
24338;DHT22;12457;50.832;4.346;2023-04-20T14:58:17;10.10;60.20
24338;DHT22;12457;50.832;4.346;2023-04-20T15:00:46;10.00;57.50
24338;DHT22;12457;50.832;4.346;2023-04-20T15:03:14;10.00;59.10
24338;DHT22;12457;50.832;4.346;2023-04-20T15:05:42;10.10;59.00
24338;DHT22;12457;50.832;4.346;2023-04-20T15:08:09;9.90;54.30
24338;DHT22;12457;50.832;4.346;2023-04-20T15:10:34;9.70;54.00
24338;DHT22;12457;50.832;4.346;2023-04-20T15:13:00;9.60;53.30
24338;DHT22;12457;50.832;4.346;2023-04-20T15:15:26;9.60;50.70
24338;DHT22;12457;50.832;4.346;2023-04-20T15:17:52;9.50;29.40
24338;DHT22;12457;50.832;4.346;2023-04-20T15:20:18;9.60;42.90
24338;DHT22;12457;50.832;4.346;2023-04-20T15:22:44;9.60;43.40
24338;DHT22;12457;50.832;4.346;2023-04-20T15:25:10;9.60;42.40
24338;DHT22;12457;50.832;4.346;2023-04-20T15:27:36;9.60;44.30
24338;DHT22;12457;50.832;4.346;2023-04-20T15:30:02;9.70;37.20
24338;DHT22;12457;50.832;4.346;2023-04-20T15:32:28;9.80;32.70
24338;DHT22;12457;50.832;4.346;2023-04-20T15:34:55;9.80;36.00
24338;DHT22;12457;50.832;4.346;2023-04-20T15:37:21;10.00;15.60
24338;DHT22;12457;50.832;4.346;2023-04-20T15:39:47;10.00;10.90
24338;DHT22;12457;50.832;4.346;2023-04-20T15:42:13;10.20;1.00
24338;DHT22;12457;50.832;4.346;2023-04-20T15:44:38;10.50;7.50
24338;DHT22;12457;50.832;4.346;2023-04-20T15:47:06;10.70;1.00
24338;DHT22;12457;50.832;4.346;2023-04-20T15:49:32;10.80;1.00